createdAt,value
2023-04-10T00:03:12.949Z,101954.75
2023-04-10T00:08:35.026Z,101955.22
2023-04-10T00:13:56.885Z,101946.28
2023-04-10T00:19:18.731Z,101941.19
2023-04-10T00:24:40.596Z,101935.00
2023-04-10T00:30:02.982Z,101936.06
2023-04-10T00:35:24.839Z,101942.06
2023-04-10T00:40:46.698Z,101932.28
2023-04-10T00:46:08.678Z,101926.09
2023-04-10T00:51:31.607Z,101921.63
2023-04-10T00:56:53.623Z,101920.16
2023-04-10T01:02:15.993Z,101915.69
2023-04-10T01:07:44.244Z,101915.06
2023-04-10T01:13:08.734Z,101914.47
2023-04-10T01:18:38.048Z,101896.13
2023-04-10T01:24:24.496Z,101903.81
2023-04-10T01:29:52.535Z,101898.72
2023-04-10T01:35:16.876Z,101893.41
2023-04-10T01:40:42.786Z,101876.97
2023-04-10T01:46:05.706Z,101865.88
2023-04-10T01:51:28.418Z,101858.63
2023-04-10T01:56:50.468Z,101856.91
2023-04-10T02:02:12.584Z,101848.81
2023-04-10T02:07:42.681Z,101851.81
2023-04-10T02:13:07.684Z,101836.47
2023-04-10T02:18:32.374Z,101830.91
2023-04-10T02:23:54.580Z,101833.09
2023-04-10T02:29:17.180Z,101826.69
2023-04-10T02:34:39.052Z,101824.97
2023-04-10T02:40:00.994Z,101829.91
2023-04-10T02:45:23.141Z,101832.06
2023-04-10T02:50:46.907Z,101826.72
2023-04-10T02:56:09.394Z,101825.03
2023-04-10T03:01:31.440Z,101834.44
2023-04-10T03:06:53.702Z,101833.59
2023-04-10T03:12:15.771Z,101822.94
2023-04-10T03:17:37.836Z,101824.03
2023-04-10T03:23:00.978Z,101814.88
2023-04-10T03:28:22.934Z,101811.72
2023-04-10T03:33:44.969Z,101817.25
2023-04-10T03:39:06.863Z,101800.00
2023-04-10T03:44:28.670Z,101802.13
2023-04-10T03:49:50.538Z,101794.06
2023-04-10T03:55:12.500Z,101795.97
2023-04-10T04:00:34.467Z,101771.47
2023-04-10T04:05:56.548Z,101770.38
2023-04-10T04:11:18.416Z,101772.53
2023-04-10T04:16:40.301Z,101758.06
2023-04-10T04:22:02.262Z,101760.84
2023-04-10T04:27:24.197Z,101749.13
2023-04-10T04:32:46.091Z,101749.13
2023-04-10T04:38:07.991Z,101748.50
2023-04-10T04:43:29.796Z,101742.09
2023-04-10T04:48:51.646Z,101748.75
2023-04-10T04:54:13.526Z,101740.00
2023-04-10T04:59:35.708Z,101734.47
2023-04-10T05:04:57.589Z,101730.41
2023-04-10T05:10:21.226Z,101723.88
2023-04-10T05:15:43.406Z,101713.59
2023-04-10T05:21:05.455Z,101709.06
2023-04-10T05:26:27.601Z,101722.53
2023-04-10T05:31:50.637Z,101725.44
2023-04-10T05:37:13.395Z,101723.75
2023-04-10T05:42:35.228Z,101729.53
2023-04-10T05:47:57.083Z,101733.03
2023-04-10T05:53:21.446Z,101729.00
2023-04-10T05:58:43.364Z,101732.50
2023-04-10T06:04:05.341Z,101737.03
2023-04-10T06:09:27.570Z,101724.94
2023-04-10T06:14:49.456Z,101723.69
2023-04-10T06:20:11.666Z,101716.06
2023-04-10T06:25:33.511Z,101707.34
2023-04-10T06:30:55.505Z,101705.88
2023-04-10T06:36:18.129Z,101686.31
2023-04-10T06:41:39.954Z,101679.53
2023-04-10T06:47:01.805Z,101682.53
2023-04-10T06:52:24.173Z,101674.44
2023-04-10T06:57:46.095Z,101664.59
2023-04-10T07:03:08.246Z,101660.13
2023-04-10T07:08:30.231Z,101656.19
2023-04-10T07:13:54.017Z,101651.16
2023-04-10T07:19:16.230Z,101640.31
2023-04-10T07:24:38.084Z,101616.22
2023-04-10T07:29:59.926Z,101607.34
2023-04-10T07:35:22.124Z,101600.47
2023-04-10T07:40:43.940Z,101589.66
2023-04-10T07:46:06.496Z,101579.13
2023-04-10T07:51:29.879Z,101561.31
2023-04-10T07:56:54.714Z,101564.84
2023-04-10T08:02:16.762Z,101566.50
2023-04-10T08:07:41.029Z,101575.19
2023-04-10T08:13:02.865Z,101574.47
2023-04-10T08:18:24.801Z,101577.72
2023-04-10T08:23:47.296Z,101562.50
2023-04-10T08:29:09.261Z,101553.69
2023-04-10T08:34:31.159Z,101545.13
2023-04-10T08:39:53.535Z,101553.81
2023-04-10T08:45:15.975Z,101539.69
2023-04-10T08:50:42.450Z,101545.63
2023-04-10T08:56:05.806Z,101544.31
2023-04-10T09:01:27.713Z,101529.94
2023-04-10T09:06:49.641Z,101538.38
2023-04-10T09:12:16.568Z,101525.41
2023-04-10T09:17:39.248Z,101513.13
2023-04-10T09:23:02.098Z,101504.44
2023-04-10T09:28:23.997Z,101508.75
2023-04-10T09:33:46.444Z,101501.78
2023-04-10T09:39:10.705Z,101497.31
2023-04-10T09:44:35.160Z,101486.19
2023-04-10T09:50:01.032Z,101480.03
2023-04-10T09:55:22.893Z,101480.25
2023-04-10T10:00:49.953Z,101473.03
2023-04-10T10:06:12.256Z,101469.41
2023-04-10T10:11:35.794Z,101473.03
2023-04-10T10:17:02.059Z,101454.44
2023-04-10T10:22:26.493Z,101429.19
2023-04-10T10:27:50.067Z,101422.81
2023-04-10T10:33:14.272Z,101413.41
2023-04-10T10:38:42.070Z,101408.69
2023-04-10T10:44:13.750Z,101402.31
2023-04-10T10:50:01.441Z,101397.56
2023-04-10T10:55:23.284Z,101375.63
2023-04-10T11:00:51.137Z,101361.75
2023-04-10T11:06:17.436Z,101358.34
2023-04-10T11:11:59.361Z,101344.22
2023-04-10T11:17:49.222Z,101341.69
2023-04-10T11:23:12.887Z,101333.63
2023-04-10T11:28:39.677Z,101318.78
2023-04-10T11:34:06.447Z,101309.88
2023-04-10T11:39:28.649Z,101296.72
2023-04-10T11:44:51.761Z,101285.25
2023-04-10T11:50:14.883Z,101286.59
2023-04-10T11:55:39.974Z,101277.44
2023-04-10T12:01:04.419Z,101259.09
2023-04-10T12:06:27.881Z,101253.28
2023-04-10T12:12:03.766Z,101247.50
2023-04-10T12:17:25.834Z,101243.88
2023-04-10T12:22:48.341Z,101238.56
2023-04-10T12:28:17.948Z,101234.13
2023-04-10T12:33:39.821Z,101236.75
2023-04-10T12:39:04.250Z,101218.94
2023-04-10T12:44:26.192Z,101218.56
2023-04-10T12:50:07.056Z,101204.94
2023-04-10T12:55:31.978Z,101200.97
2023-04-10T13:00:56.453Z,101185.91
2023-04-10T13:06:18.428Z,101177.34
2023-04-10T13:11:41.075Z,101169.28
2023-04-10T13:17:02.931Z,101151.53
2023-04-10T13:22:24.756Z,101138.50
2023-04-10T13:27:46.595Z,101120.50
2023-04-10T13:33:09.630Z,101114.47
2023-04-10T13:38:31.678Z,101093.97
2023-04-10T13:43:53.773Z,101094.31
2023-04-10T13:49:18.201Z,101079.09
2023-04-10T13:54:40.062Z,101090.78
2023-04-10T14:00:02.194Z,101087.19
2023-04-10T14:05:24.093Z,101082.25
2023-04-10T14:10:50.912Z,101070.28
2023-04-10T14:16:13.118Z,101066.41
2023-04-10T14:21:35.281Z,101053.13
2023-04-10T14:27:01.016Z,101030.13
2023-04-10T14:32:23.153Z,101018.00
2023-04-10T14:37:45.125Z,101023.22
2023-04-10T14:43:07.569Z,101023.88
2023-04-10T14:48:29.926Z,101011.63
2023-04-10T14:53:52.525Z,101002.78
2023-04-10T14:59:14.573Z,101013.00
2023-04-10T15:04:36.614Z,101007.25
2023-04-10T15:09:58.932Z,101001.38
2023-04-10T15:15:20.836Z,101004.94
2023-04-10T15:20:43.396Z,101006.81
2023-04-10T15:26:05.537Z,101022.81
2023-04-10T15:31:28.157Z,101019.66
2023-04-10T15:36:50.093Z,101025.66
2023-04-10T15:42:12.065Z,101031.16
2023-04-10T15:47:33.958Z,101022.13
2023-04-10T15:52:55.955Z,101007.59
2023-04-10T15:58:17.808Z,100999.75
2023-04-10T16:03:39.900Z,100996.34
2023-04-10T16:09:02.171Z,100990.06
2023-04-10T16:14:24.922Z,100986.31
2023-04-10T16:19:46.960Z,101002.03
2023-04-10T16:25:09.619Z,101011.13
2023-04-10T16:30:31.529Z,101009.56
2023-04-10T16:35:54.284Z,101011.34
2023-04-10T16:41:21.094Z,101017.34
2023-04-10T16:46:43.062Z,101024.91
2023-04-10T16:52:04.962Z,101020.44
2023-04-10T16:57:26.902Z,101021.50
2023-04-10T17:02:49.504Z,101026.38
2023-04-10T17:08:11.326Z,101037.09
2023-04-10T17:13:34.264Z,101024.22
2023-04-10T17:18:56.918Z,101015.50
2023-04-10T17:24:19.043Z,101010.38
2023-04-10T17:29:41.487Z,101001.13
2023-04-10T17:35:03.437Z,101007.94
2023-04-10T17:40:25.347Z,100989.59
2023-04-10T17:45:47.304Z,100958.03
2023-04-10T17:51:09.454Z,100953.19
2023-04-10T17:56:32.023Z,100922.53
2023-04-10T18:01:54.058Z,100942.97
2023-04-10T18:07:16.207Z,100927.50
2023-04-10T18:12:38.114Z,100907.00
2023-04-10T18:17:59.965Z,100917.91
2023-04-10T18:23:24.390Z,100943.00
2023-04-10T18:28:46.583Z,100933.31
2023-04-10T18:34:08.933Z,100935.84
2023-04-10T18:39:30.989Z,100906.19
2023-04-10T18:44:52.837Z,100877.19
2023-04-10T18:50:14.767Z,100926.41
2023-04-10T18:55:36.669Z,100938.84
2023-04-10T19:00:58.632Z,100942.03
2023-04-10T19:06:24.484Z,100933.97
2023-04-10T19:11:46.422Z,100945.94
2023-04-10T19:17:08.777Z,100901.66
2023-04-10T19:22:33.110Z,100924.47
2023-04-10T19:27:55.131Z,100915.78
2023-04-10T19:33:17.491Z,100919.28
2023-04-10T19:38:41.241Z,100926.19
2023-04-10T19:44:03.116Z,100926.09
2023-04-10T19:49:25.441Z,100931.03
2023-04-10T19:54:48.131Z,100936.50
2023-04-10T20:00:10.624Z,100929.22
2023-04-10T20:05:32.546Z,100913.56
2023-04-10T20:10:56.078Z,100915.22
2023-04-10T20:16:19.156Z,100922.13
2023-04-10T20:21:41.214Z,100918.75
2023-04-10T20:27:03.390Z,100916.50
2023-04-10T20:32:25.385Z,100901.16
2023-04-10T20:37:47.693Z,100917.81
2023-04-10T20:43:12.444Z,100902.47
2023-04-10T20:48:34.551Z,100889.91
2023-04-10T20:53:56.463Z,100869.88
2023-04-10T20:59:18.705Z,100882.09
2023-04-10T21:04:40.561Z,100887.09
2023-04-10T21:10:02.513Z,100891.50
2023-04-10T21:15:24.454Z,100886.72
2023-04-10T21:20:46.339Z,100903.09
2023-04-10T21:26:08.312Z,100904.63
2023-04-10T21:31:30.163Z,100917.88
2023-04-10T21:36:51.976Z,100907.22
2023-04-10T21:42:13.834Z,100892.44
2023-04-10T21:47:35.704Z,100912.66
2023-04-10T21:52:57.660Z,100912.31
2023-04-10T21:58:19.601Z,100912.56
2023-04-10T22:03:41.639Z,100893.06
2023-04-10T22:09:03.662Z,100895.81
2023-04-10T22:14:26.015Z,100896.59
2023-04-10T22:19:47.856Z,100892.66
2023-04-10T22:25:09.815Z,100892.28
2023-04-10T22:30:31.652Z,100877.84
2023-04-10T22:35:53.952Z,100896.09
2023-04-10T22:41:15.916Z,100889.97
2023-04-10T22:46:38.015Z,100888.56
2023-04-10T22:52:00.128Z,100887.09
2023-04-10T22:57:21.990Z,100904.28
2023-04-10T23:02:44.070Z,100897.06
2023-04-10T23:08:06.000Z,100901.44
2023-04-10T23:13:27.828Z,100912.19
2023-04-10T23:18:50.921Z,100919.13
2023-04-10T23:24:12.732Z,100914.06
2023-04-10T23:29:35.136Z,100915.41
2023-04-10T23:34:56.974Z,100919.53
2023-04-10T23:40:19.971Z,100920.59
2023-04-10T23:45:41.809Z,100929.69
2023-04-10T23:51:05.452Z,100911.63
2023-04-10T23:56:29.470Z,100918.53
